TAF KTOI
AMD KTOI 080223Z 0802/0824 00000KT 3SM BR OVC002 TEMPO 0802/0803 1SM BR FM080600 VRB04KT 1/2SM FG VCSH OVC002 FM081200 25003KT 3SM -SHRA BR OVC003 FM081500 31005KT 4SM BR OVC005 PROB30 0815/0818 4SM -SHRA BR OVC002 FM081800 32006KT P6SM BKN015=
METAR KTOI
WC KTOI
WS KTOI
WV KTOI